METAR UND TAF INFORMATION
BGKK 241250Z 26005KT 3000 VCFG BKN005 BKN010 05/04 Q1020

 FLUGHAFENKARTE

 RUNWAY INFORMATION
Runway 11 Runway length 3934 ft Runway width 0 ft
Runway elevation 115 ft Runway displaced threshold 0 ft Runway heading 0
Runway 29 Runway length 3934 ft Runway width 0 ft
Runway elevation 104 ft Runway displaced threshold 0 ft Runway heading 0

 AIRPORT FREQUENCIES

 AIRPORT NEAR NAVIGATION AIDS
Type NDB Name Kulusuk Frequency 377 KHZ